sensor_id;sensor_type;location;lat;lon;timestamp;pressure;altitude;pressure_sealevel;temperature;humidity
15050;BME280;7622;42.724;23.250;2022-08-06T08:27:29;94537.06;;;35.09;40.79
15050;BME280;7622;42.724;23.250;2022-08-06T08:29:56;94534.34;;;35.09;39.33
15050;BME280;7622;42.724;23.250;2022-08-06T08:32:23;94535.25;;;35.04;39.37
15050;BME280;7622;42.724;23.250;2022-08-06T08:34:50;94533.56;;;35.08;38.42
15050;BME280;7622;42.724;23.250;2022-08-06T08:37:17;94531.13;;;35.62;37.62
15050;BME280;7622;42.724;23.250;2022-08-06T08:39:44;94532.91;;;35.93;36.60
15050;BME280;7622;42.724;23.250;2022-08-06T08:42:16;94530.28;;;36.47;35.87
15050;BME280;7622;42.724;23.250;2022-08-06T08:44:46;94526.38;;;36.30;36.32
15050;BME280;7622;42.724;23.250;2022-08-06T08:47:15;94533.72;;;36.39;36.46
15050;BME280;7622;42.724;23.250;2022-08-06T08:49:46;94525.97;;;36.68;35.81
15050;BME280;7622;42.724;23.250;2022-08-06T08:52:16;94523.72;;;36.39;35.31
15050;BME280;7622;42.724;23.250;2022-08-06T08:54:48;94532.03;;;36.65;35.72
15050;BME280;7622;42.724;23.250;2022-08-06T08:57:15;94526.13;;;36.41;35.43
15050;BME280;7622;42.724;23.250;2022-08-06T08:59:42;94513.16;;;36.29;35.36
15050;BME280;7622;42.724;23.250;2022-08-06T09:02:12;94527.50;;;36.60;34.40
15050;BME280;7622;42.724;23.250;2022-08-06T09:04:39;94528.28;;;36.30;35.01
15050;BME280;7622;42.724;23.250;2022-08-06T09:07:08;94526.38;;;36.17;35.96
15050;BME280;7622;42.724;23.250;2022-08-06T09:09:37;94526.72;;;36.15;35.92
15050;BME280;7622;42.724;23.250;2022-08-06T09:12:05;94521.69;;;36.67;35.11
15050;BME280;7622;42.724;23.250;2022-08-06T09:14:33;94524.63;;;36.57;35.25
15050;BME280;7622;42.724;23.250;2022-08-06T09:17:00;94516.88;;;36.42;34.42
15050;BME280;7622;42.724;23.250;2022-08-06T09:19:29;94515.53;;;35.59;35.21
15050;BME280;7622;42.724;23.250;2022-08-06T09:21:57;94515.84;;;35.16;36.73
15050;BME280;7622;42.724;23.250;2022-08-06T09:24:24;94515.56;;;35.31;36.14
15050;BME280;7622;42.724;23.250;2022-08-06T09:27:05;94511.13;;;35.08;37.25
15050;BME280;7622;42.724;23.250;2022-08-06T09:29:32;94517.22;;;34.72;36.96
15050;BME280;7622;42.724;23.250;2022-08-06T09:32:00;94519.91;;;34.72;37.11
15050;BME280;7622;42.724;23.250;2022-08-06T09:34:35;94513.50;;;34.68;37.31
15050;BME280;7622;42.724;23.250;2022-08-06T09:37:03;94485.59;;;33.94;38.22
15050;BME280;7622;42.724;23.250;2022-08-06T09:39:31;94506.53;;;34.35;37.54
15050;BME280;7622;42.724;23.250;2022-08-06T09:42:00;94506.84;;;34.15;37.50
15050;BME280;7622;42.724;23.250;2022-08-06T09:44:27;94511.59;;;33.85;38.65
15050;BME280;7622;42.724;23.250;2022-08-06T09:46:54;94509.78;;;33.81;38.91
15050;BME280;7622;42.724;23.250;2022-08-06T09:49:23;94504.88;;;33.64;38.60
15050;BME280;7622;42.724;23.250;2022-08-06T09:52:09;94513.09;;;33.54;38.62
15050;BME280;7622;42.724;23.250;2022-08-06T09:54:38;94497.59;;;33.46;38.75
15050;BME280;7622;42.724;23.250;2022-08-06T09:57:05;94498.25;;;33.56;39.16
15050;BME280;7622;42.724;23.250;2022-08-06T09:59:41;94499.41;;;33.50;38.38
15050;BME280;7622;42.724;23.250;2022-08-06T10:02:12;94475.50;;;33.44;37.88
15050;BME280;7622;42.724;23.250;2022-08-06T10:04:40;94507.66;;;33.59;38.95
15050;BME280;7622;42.724;23.250;2022-08-06T10:07:09;94496.56;;;33.18;39.27
15050;BME280;7622;42.724;23.250;2022-08-06T10:09:36;94493.56;;;33.43;39.53
15050;BME280;7622;42.724;23.250;2022-08-06T10:12:17;94496.50;;;33.47;39.63
15050;BME280;7622;42.724;23.250;2022-08-06T10:14:44;94499.28;;;33.60;38.85
15050;BME280;7622;42.724;23.250;2022-08-06T10:17:12;94489.13;;;33.34;39.38
15050;BME280;7622;42.724;23.250;2022-08-06T10:19:41;94494.00;;;33.32;39.58
15050;BME280;7622;42.724;23.250;2022-08-06T10:22:11;94481.56;;;33.12;40.46
15050;BME280;7622;42.724;23.250;2022-08-06T10:24:40;94492.00;;;32.66;41.08
15050;BME280;7622;42.724;23.250;2022-08-06T10:27:10;94493.69;;;32.91;41.14
15050;BME280;7622;42.724;23.250;2022-08-06T10:29:45;94483.88;;;33.23;39.74
15050;BME280;7622;42.724;23.250;2022-08-06T10:32:21;94485.41;;;33.30;39.97
15050;BME280;7622;42.724;23.250;2022-08-06T10:34:51;94484.59;;;33.48;40.29
15050;BME280;7622;42.724;23.250;2022-08-06T10:37:20;94474.44;;;33.82;39.38
15050;BME280;7622;42.724;23.250;2022-08-06T10:39:51;94486.50;;;34.04;38.87
15050;BME280;7622;42.724;23.250;2022-08-06T10:42:21;94483.94;;;34.12;37.50
15050;BME280;7622;42.724;23.250;2022-08-06T10:44:50;94487.69;;;33.97;37.83
15050;BME280;7622;42.724;23.250;2022-08-06T10:47:17;94480.53;;;33.32;39.10
15050;BME280;7622;42.724;23.250;2022-08-06T10:49:45;94479.97;;;33.11;39.04
15050;BME280;7622;42.724;23.250;2022-08-06T10:52:12;94473.19;;;32.66;39.44
15050;BME280;7622;42.724;23.250;2022-08-06T10:54:40;94474.91;;;32.57;39.62
15050;BME280;7622;42.724;23.250;2022-08-06T10:57:07;94479.97;;;32.87;39.46
15050;BME280;7622;42.724;23.250;2022-08-06T10:59:38;94474.97;;;32.99;39.37
15050;BME280;7622;42.724;23.250;2022-08-06T11:02:12;94468.44;;;33.29;38.86
15050;BME280;7622;42.724;23.250;2022-08-06T11:04:50;94473.97;;;34.13;38.26
15050;BME280;7622;42.724;23.250;2022-08-06T11:07:38;94471.31;;;35.00;36.20
15050;BME280;7622;42.724;23.250;2022-08-06T11:10:43;94464.50;;;35.43;35.98
15050;BME280;7622;42.724;23.250;2022-08-06T11:13:19;94466.34;;;35.70;35.33
15050;BME280;7622;42.724;23.250;2022-08-06T11:15:47;94463.31;;;35.08;36.46
15050;BME280;7622;42.724;23.250;2022-08-06T11:18:15;94476.13;;;34.89;35.80
15050;BME280;7622;42.724;23.250;2022-08-06T11:20:43;94463.41;;;34.62;35.78
15050;BME280;7622;42.724;23.250;2022-08-06T11:23:25;94471.03;;;34.28;36.84
15050;BME280;7622;42.724;23.250;2022-08-06T11:25:54;94454.34;;;33.75;38.24
15050;BME280;7622;42.724;23.250;2022-08-06T11:31:40;94450.44;;;33.62;38.87
15050;BME280;7622;42.724;23.250;2022-08-06T11:34:11;94466.00;;;34.21;38.33
15050;BME280;7622;42.724;23.250;2022-08-06T11:36:51;94461.38;;;34.54;37.07
15050;BME280;7622;42.724;23.250;2022-08-06T11:39:19;94462.38;;;34.58;37.22
15050;BME280;7622;42.724;23.250;2022-08-06T11:41:53;94460.94;;;34.80;36.74
15050;BME280;7622;42.724;23.250;2022-08-06T11:44:21;94463.91;;;34.51;37.02
15050;BME280;7622;42.724;23.250;2022-08-06T11:46:49;94458.53;;;34.92;36.47
15050;BME280;7622;42.724;23.250;2022-08-06T11:49:37;94459.84;;;34.81;35.50
15050;BME280;7622;42.724;23.250;2022-08-06T11:52:05;94459.31;;;34.92;35.05
15050;BME280;7622;42.724;23.250;2022-08-06T11:54:32;94450.06;;;34.85;35.61
15050;BME280;7622;42.724;23.250;2022-08-06T11:57:20;94449.22;;;34.70;35.75
15050;BME280;7622;42.724;23.250;2022-08-06T12:00:05;94453.13;;;34.64;36.29
15050;BME280;7622;42.724;23.250;2022-08-06T12:02:58;94442.66;;;34.44;36.48
15050;BME280;7622;42.724;23.250;2022-08-06T12:05:38;94442.31;;;33.86;36.33
15050;BME280;7622;42.724;23.250;2022-08-06T12:08:22;94454.13;;;33.52;36.76
15050;BME280;7622;42.724;23.250;2022-08-06T12:11:24;94440.31;;;33.54;36.65
15050;BME280;7622;42.724;23.250;2022-08-06T12:13:56;94435.53;;;33.51;36.35
15050;BME280;7622;42.724;23.250;2022-08-06T12:16:37;94442.09;;;33.45;37.41
15050;BME280;7622;42.724;23.250;2022-08-06T12:19:10;94435.16;;;33.20;38.11
15050;BME280;7622;42.724;23.250;2022-08-06T12:21:37;94431.25;;;33.07;37.90
15050;BME280;7622;42.724;23.250;2022-08-06T12:24:06;94427.31;;;33.42;38.36
15050;BME280;7622;42.724;23.250;2022-08-06T12:26:33;94424.53;;;33.47;37.72
15050;BME280;7622;42.724;23.250;2022-08-06T12:29:06;94426.28;;;33.57;37.23
15050;BME280;7622;42.724;23.250;2022-08-06T12:31:35;94419.63;;;33.68;37.63
15050;BME280;7622;42.724;23.250;2022-08-06T12:34:03;94416.47;;;33.29;38.19
15050;BME280;7622;42.724;23.250;2022-08-06T12:36:32;94416.91;;;33.36;38.31
15050;BME280;7622;42.724;23.250;2022-08-06T12:39:00;94427.81;;;33.63;37.50
15050;BME280;7622;42.724;23.250;2022-08-06T12:41:40;94414.69;;;33.75;37.02
15050;BME280;7622;42.724;23.250;2022-08-06T12:44:12;94414.34;;;33.63;37.43
15050;BME280;7622;42.724;23.250;2022-08-06T12:46:39;94411.16;;;33.80;37.27
15050;BME280;7622;42.724;23.250;2022-08-06T12:49:06;94408.53;;;34.07;36.55
15050;BME280;7622;42.724;23.250;2022-08-06T12:51:34;94407.53;;;34.17;37.30
15050;BME280;7622;42.724;23.250;2022-08-06T12:54:04;94405.63;;;34.50;36.24
15050;BME280;7622;42.724;23.250;2022-08-06T12:56:33;94406.69;;;34.35;36.33
15050;BME280;7622;42.724;23.250;2022-08-06T12:59:05;94404.16;;;33.79;36.78
15050;BME280;7622;42.724;23.250;2022-08-06T13:01:35;94405.75;;;33.80;37.08
15050;BME280;7622;42.724;23.250;2022-08-06T13:04:06;94397.97;;;33.59;36.49
15050;BME280;7622;42.724;23.250;2022-08-06T13:06:36;94393.28;;;33.65;36.35
15050;BME280;7622;42.724;23.250;2022-08-06T13:09:04;94388.00;;;33.92;35.61
15050;BME280;7622;42.724;23.250;2022-08-06T13:11:32;94395.63;;;34.18;35.50
15050;BME280;7622;42.724;23.250;2022-08-06T13:14:07;94405.19;;;33.96;35.45
15050;BME280;7622;42.724;23.250;2022-08-06T13:16:40;94388.19;;;33.96;35.43
15050;BME280;7622;42.724;23.250;2022-08-06T13:19:08;94392.66;;;33.73;35.56
15050;BME280;7622;42.724;23.250;2022-08-06T13:21:36;94377.88;;;33.52;36.30
15050;BME280;7622;42.724;23.250;2022-08-06T13:24:06;94383.78;;;33.35;36.58
15050;BME280;7622;42.724;23.250;2022-08-06T13:26:34;94364.84;;;33.03;36.97
15050;BME280;7622;42.724;23.250;2022-08-06T13:29:14;94379.56;;;32.87;36.74
15050;BME280;7622;42.724;23.250;2022-08-06T13:31:43;94396.16;;;32.75;37.20
15050;BME280;7622;42.724;23.250;2022-08-06T13:34:11;94383.53;;;32.46;37.09
15050;BME280;7622;42.724;23.250;2022-08-06T13:36:40;94357.78;;;32.40;37.15
15050;BME280;7622;42.724;23.250;2022-08-06T13:39:18;94381.09;;;32.74;36.68
15050;BME280;7622;42.724;23.250;2022-08-06T13:41:45;94369.78;;;32.96;36.54
15050;BME280;7622;42.724;23.250;2022-08-06T13:44:29;94381.44;;;33.29;36.54
15050;BME280;7622;42.724;23.250;2022-08-06T13:46:57;94353.53;;;32.82;36.82
15050;BME280;7622;42.724;23.250;2022-08-06T13:49:24;94374.72;;;32.65;37.30
15050;BME280;7622;42.724;23.250;2022-08-06T13:51:52;94377.63;;;32.44;37.97
15050;BME280;7622;42.724;23.250;2022-08-06T13:54:21;94382.75;;;32.46;37.75
15050;BME280;7622;42.724;23.250;2022-08-06T13:56:49;94376.31;;;32.18;37.45
15050;BME280;7622;42.724;23.250;2022-08-06T13:59:16;94376.09;;;32.15;37.40
15050;BME280;7622;42.724;23.250;2022-08-06T14:01:44;94372.63;;;32.14;37.10
15050;BME280;7622;42.724;23.250;2022-08-06T14:04:13;94368.09;;;32.33;35.19
15050;BME280;7622;42.724;23.250;2022-08-06T14:06:41;94369.97;;;32.33;36.27
15050;BME280;7622;42.724;23.250;2022-08-06T14:09:08;94359.72;;;32.59;36.35
15050;BME280;7622;42.724;23.250;2022-08-06T14:11:35;94364.59;;;32.80;35.79
15050;BME280;7622;42.724;23.250;2022-08-06T14:14:01;94360.44;;;33.07;35.08
15050;BME280;7622;42.724;23.250;2022-08-06T14:16:28;94358.19;;;32.95;35.54
15050;BME280;7622;42.724;23.250;2022-08-06T14:18:55;94358.41;;;32.99;36.08
15050;BME280;7622;42.724;23.250;2022-08-06T14:21:23;94360.97;;;32.90;35.82
15050;BME280;7622;42.724;23.250;2022-08-06T14:23:50;94355.50;;;33.14;35.62
15050;BME280;7622;42.724;23.250;2022-08-06T14:26:16;94356.13;;;33.30;35.75
15050;BME280;7622;42.724;23.250;2022-08-06T14:28:43;94352.94;;;33.60;35.89
15050;BME280;7622;42.724;23.250;2022-08-06T14:31:10;94354.59;;;33.23;36.69
15050;BME280;7622;42.724;23.250;2022-08-06T14:33:37;94359.09;;;33.09;36.99
15050;BME280;7622;42.724;23.250;2022-08-06T14:36:04;94357.47;;;33.08;37.31
15050;BME280;7622;42.724;23.250;2022-08-06T14:38:32;94358.94;;;32.82;37.53
15050;BME280;7622;42.724;23.250;2022-08-06T14:40:59;94336.72;;;32.71;37.29
15050;BME280;7622;42.724;23.250;2022-08-06T14:43:44;94361.25;;;32.70;37.64
15050;BME280;7622;42.724;23.250;2022-08-06T14:46:28;94351.25;;;32.46;37.87
15050;BME280;7622;42.724;23.250;2022-08-06T14:48:55;94359.28;;;32.52;37.19
15050;BME280;7622;42.724;23.250;2022-08-06T14:51:22;94349.56;;;32.56;37.10
15050;BME280;7622;42.724;23.250;2022-08-06T14:53:50;94352.59;;;32.49;37.31
15050;BME280;7622;42.724;23.250;2022-08-06T14:56:17;94351.16;;;32.33;37.86
15050;BME280;7622;42.724;23.250;2022-08-06T14:58:44;94349.44;;;32.18;38.38
15050;BME280;7622;42.724;23.250;2022-08-06T15:01:10;94352.72;;;32.10;38.42
15050;BME280;7622;42.724;23.250;2022-08-06T15:03:38;94360.09;;;32.28;38.28
15050;BME280;7622;42.724;23.250;2022-08-06T15:06:05;94348.34;;;32.19;38.68
15050;BME280;7622;42.724;23.250;2022-08-06T15:08:32;94353.56;;;32.05;38.81
15050;BME280;7622;42.724;23.250;2022-08-06T15:11:00;94360.47;;;31.88;39.12
15050;BME280;7622;42.724;23.250;2022-08-06T15:13:27;94355.13;;;31.88;38.67
15050;BME280;7622;42.724;23.250;2022-08-06T15:15:54;94354.34;;;31.82;38.50
15050;BME280;7622;42.724;23.250;2022-08-06T15:18:21;94350.63;;;32.02;38.71
15050;BME280;7622;42.724;23.250;2022-08-06T15:20:48;94352.91;;;31.90;38.82
15050;BME280;7622;42.724;23.250;2022-08-06T15:23:14;94349.69;;;31.93;39.41
15050;BME280;7622;42.724;23.250;2022-08-06T15:25:42;94356.94;;;31.92;38.89
15050;BME280;7622;42.724;23.250;2022-08-06T15:28:10;94347.19;;;31.73;39.04
15050;BME280;7622;42.724;23.250;2022-08-06T15:30:38;94349.81;;;31.78;39.18
15050;BME280;7622;42.724;23.250;2022-08-06T15:33:05;94342.94;;;31.66;40.51
15050;BME280;7622;42.724;23.250;2022-08-06T15:35:32;94333.38;;;31.50;40.67
15050;BME280;7622;42.724;23.250;2022-08-06T15:37:59;94341.97;;;31.52;40.75
15050;BME280;7622;42.724;23.250;2022-08-06T15:40:25;94343.31;;;31.50;41.32
15050;BME280;7622;42.724;23.250;2022-08-06T15:42:52;94344.44;;;31.44;41.32
15050;BME280;7622;42.724;23.250;2022-08-06T15:45:21;94346.31;;;31.43;40.75
15050;BME280;7622;42.724;23.250;2022-08-06T15:47:48;94349.88;;;31.34;40.89
15050;BME280;7622;42.724;23.250;2022-08-06T15:50:15;94351.69;;;31.43;41.46
15050;BME280;7622;42.724;23.250;2022-08-06T15:52:41;94351.59;;;31.24;40.97
15050;BME280;7622;42.724;23.250;2022-08-06T15:55:09;94351.59;;;31.24;41.37
15050;BME280;7622;42.724;23.250;2022-08-06T15:57:35;94345.41;;;31.19;41.42
15050;BME280;7622;42.724;23.250;2022-08-06T16:00:03;94344.88;;;31.22;41.53
15050;BME280;7622;42.724;23.250;2022-08-06T16:02:32;94345.88;;;31.31;41.31
15050;BME280;7622;42.724;23.250;2022-08-06T16:04:58;94347.41;;;31.42;41.25
15050;BME280;7622;42.724;23.250;2022-08-06T16:07:25;94349.41;;;31.26;41.38
15050;BME280;7622;42.724;23.250;2022-08-06T16:09:52;94336.38;;;31.05;42.35
15050;BME280;7622;42.724;23.250;2022-08-06T16:12:19;94336.94;;;31.02;41.22
15050;BME280;7622;42.724;23.250;2022-08-06T16:14:45;94341.75;;;31.00;41.16
15050;BME280;7622;42.724;23.250;2022-08-06T16:17:13;94325.75;;;30.89;41.71
15050;BME280;7622;42.724;23.250;2022-08-06T16:19:41;94345.56;;;30.93;41.57
15050;BME280;7622;42.724;23.250;2022-08-06T16:22:08;94333.47;;;30.96;42.59
15050;BME280;7622;42.724;23.250;2022-08-06T16:24:34;94349.06;;;30.94;42.25
15050;BME280;7622;42.724;23.250;2022-08-06T16:27:01;94344.06;;;30.72;42.52
15050;BME280;7622;42.724;23.250;2022-08-06T16:29:31;94342.50;;;30.66;42.74
15050;BME280;7622;42.724;23.250;2022-08-06T16:32:00;94340.88;;;30.70;42.48
15050;BME280;7622;42.724;23.250;2022-08-06T16:34:27;94349.50;;;30.62;42.91
15050;BME280;7622;42.724;23.250;2022-08-06T16:36:56;94352.19;;;30.57;43.52
15050;BME280;7622;42.724;23.250;2022-08-06T16:39:23;94351.94;;;30.53;43.88
15050;BME280;7622;42.724;23.250;2022-08-06T16:41:49;94353.78;;;30.58;43.28
15050;BME280;7622;42.724;23.250;2022-08-06T16:44:16;94354.91;;;30.52;44.21
15050;BME280;7622;42.724;23.250;2022-08-06T16:46:43;94357.84;;;30.50;44.64
15050;BME280;7622;42.724;23.250;2022-08-06T16:49:10;94339.44;;;30.24;45.29
15050;BME280;7622;42.724;23.250;2022-08-06T16:51:37;94359.78;;;30.35;45.03
15050;BME280;7622;42.724;23.250;2022-08-06T16:54:06;94363.25;;;30.35;45.14
15050;BME280;7622;42.724;23.250;2022-08-06T16:56:32;94357.16;;;30.14;45.95
15050;BME280;7622;42.724;23.250;2022-08-06T16:58:59;94367.84;;;30.20;45.19
15050;BME280;7622;42.724;23.250;2022-08-06T17:01:26;94371.09;;;30.22;45.24
15050;BME280;7622;42.724;23.250;2022-08-06T17:03:53;94363.84;;;30.17;45.46
15050;BME280;7622;42.724;23.250;2022-08-06T17:06:20;94367.91;;;29.99;46.35
15050;BME280;7622;42.724;23.250;2022-08-06T17:08:47;94376.69;;;30.15;45.45
15050;BME280;7622;42.724;23.250;2022-08-06T17:11:15;94375.41;;;30.07;45.48
15050;BME280;7622;42.724;23.250;2022-08-06T17:13:42;94374.84;;;29.90;45.95
15050;BME280;7622;42.724;23.250;2022-08-06T17:16:08;94362.53;;;29.94;45.85
15050;BME280;7622;42.724;23.250;2022-08-06T17:18:35;94372.72;;;30.02;45.85
15050;BME280;7622;42.724;23.250;2022-08-06T17:21:02;94374.34;;;29.93;46.42
15050;BME280;7622;42.724;23.250;2022-08-06T17:23:29;94371.66;;;29.78;47.02
15050;BME280;7622;42.724;23.250;2022-08-06T17:25:55;94373.28;;;29.79;46.68
15050;BME280;7622;42.724;23.250;2022-08-06T17:28:24;94370.59;;;29.69;46.99
15050;BME280;7622;42.724;23.250;2022-08-06T17:30:50;94372.72;;;29.82;47.29
15050;BME280;7622;42.724;23.250;2022-08-06T17:33:17;94367.09;;;29.73;46.51
15050;BME280;7622;42.724;23.250;2022-08-06T17:35:44;94373.81;;;29.56;48.01
15050;BME280;7622;42.724;23.250;2022-08-06T17:38:11;94376.50;;;29.56;48.18
15050;BME280;7622;42.724;23.250;2022-08-06T17:40:37;94378.91;;;29.52;48.02
15050;BME280;7622;42.724;23.250;2022-08-06T17:43:06;94375.16;;;29.38;48.34
15050;BME280;7622;42.724;23.250;2022-08-06T17:45:38;94361.47;;;29.29;48.99
15050;BME280;7622;42.724;23.250;2022-08-06T17:48:05;94374.34;;;29.43;49.07
15050;BME280;7622;42.724;23.250;2022-08-06T17:50:33;94371.63;;;29.27;49.64
15050;BME280;7622;42.724;23.250;2022-08-06T17:52:59;94369.72;;;29.13;49.96
15050;BME280;7622;42.724;23.250;2022-08-06T17:55:26;94380.44;;;29.13;50.17
15050;BME280;7622;42.724;23.250;2022-08-06T17:57:53;94374.28;;;29.12;50.44
15050;BME280;7622;42.724;23.250;2022-08-06T18:00:20;94386.34;;;29.15;49.74
15050;BME280;7622;42.724;23.250;2022-08-06T18:02:48;94373.19;;;28.98;50.76
15050;BME280;7622;42.724;23.250;2022-08-06T18:05:15;94374.78;;;28.99;50.42
15050;BME280;7622;42.724;23.250;2022-08-06T18:07:41;94380.94;;;28.99;50.86
15050;BME280;7622;42.724;23.250;2022-08-06T18:10:08;94374.03;;;29.09;50.37
15050;BME280;7622;42.724;23.250;2022-08-06T18:12:53;94374.78;;;28.99;50.57
15050;BME280;7622;42.724;23.250;2022-08-06T18:15:23;94379.59;;;28.92;51.69
15050;BME280;7622;42.724;23.250;2022-08-06T18:17:51;94373.69;;;28.75;51.78
15050;BME280;7622;42.724;23.250;2022-08-06T18:20:18;94382.78;;;28.79;52.33
15050;BME280;7622;42.724;23.250;2022-08-06T18:22:46;94359.16;;;28.66;52.16
15050;BME280;7622;42.724;23.250;2022-08-06T18:25:14;94387.53;;;28.67;53.88
15050;BME280;7622;42.724;23.250;2022-08-06T18:27:42;94384.53;;;28.58;55.69
15050;BME280;7622;42.724;23.250;2022-08-06T18:30:11;94389.94;;;28.68;56.76
15050;BME280;7622;42.724;23.250;2022-08-06T18:32:38;94385.41;;;28.69;58.42
15050;BME280;7622;42.724;23.250;2022-08-06T18:35:07;94387.53;;;28.67;58.27
15050;BME280;7622;42.724;23.250;2022-08-06T18:37:34;94395.78;;;28.60;58.85
15050;BME280;7622;42.724;23.250;2022-08-06T18:40:01;94403.53;;;28.62;58.86
15050;BME280;7622;42.724;23.250;2022-08-06T18:42:28;94397.09;;;28.52;56.92
15050;BME280;7622;42.724;23.250;2022-08-06T18:44:55;94417.53;;;28.79;53.55
15050;BME280;7622;42.724;23.250;2022-08-06T18:47:23;94414.28;;;28.72;54.53
15050;BME280;7622;42.724;23.250;2022-08-06T18:49:49;94420.09;;;28.64;55.34
15050;BME280;7622;42.724;23.250;2022-08-06T18:52:18;94414.72;;;28.48;56.08
15050;BME280;7622;42.724;23.250;2022-08-06T18:54:45;94417.91;;;28.45;56.80
15050;BME280;7622;42.724;23.250;2022-08-06T18:57:13;94427.50;;;28.41;57.08
15050;BME280;7622;42.724;23.250;2022-08-06T18:59:40;94419.50;;;28.46;56.85
15050;BME280;7622;42.724;23.250;2022-08-06T19:02:09;94411.50;;;28.51;55.93
15050;BME280;7622;42.724;23.250;2022-08-06T19:04:36;94404.84;;;28.49;56.70
15050;BME280;7622;42.724;23.250;2022-08-06T19:07:06;94428.13;;;28.58;56.79
15050;BME280;7622;42.724;23.250;2022-08-06T19:09:39;94427.59;;;28.62;57.37
15050;BME280;7622;42.724;23.250;2022-08-06T19:12:08;94428.28;;;28.37;58.74
15050;BME280;7622;42.724;23.250;2022-08-06T19:14:35;94428.56;;;28.40;59.19
15050;BME280;7622;42.724;23.250;2022-08-06T19:17:03;94431.66;;;28.22;60.55
15050;BME280;7622;42.724;23.250;2022-08-06T19:19:30;94434.34;;;28.22;63.25
15050;BME280;7622;42.724;23.250;2022-08-06T19:21:57;94430.53;;;28.13;64.15
15050;BME280;7622;42.724;23.250;2022-08-06T19:24:24;94434.22;;;28.07;65.75
15050;BME280;7622;42.724;23.250;2022-08-06T19:26:53;94431.72;;;27.95;67.62
15050;BME280;7622;42.724;23.250;2022-08-06T19:29:20;94435.38;;;27.79;69.05
15050;BME280;7622;42.724;23.250;2022-08-06T19:31:47;94420.19;;;27.53;71.43
15050;BME280;7622;42.724;23.250;2022-08-06T19:34:15;94399.44;;;27.33;72.87
15050;BME280;7622;42.724;23.250;2022-08-06T19:36:45;94437.63;;;27.38;73.00
15050;BME280;7622;42.724;23.250;2022-08-06T19:39:12;94444.34;;;27.41;72.89
15050;BME280;7622;42.724;23.250;2022-08-06T19:41:40;94445.81;;;27.54;73.05
15050;BME280;7622;42.724;23.250;2022-08-06T19:44:09;94448.28;;;27.60;72.06
15050;BME280;7622;42.724;23.250;2022-08-06T19:46:35;94442.41;;;27.58;73.06
15050;BME280;7622;42.724;23.250;2022-08-06T19:49:02;94452.00;;;27.59;72.25
15050;BME280;7622;42.724;23.250;2022-08-06T19:51:30;94448.41;;;27.49;75.18
15050;BME280;7622;42.724;23.250;2022-08-06T19:53:58;94412.63;;;27.18;76.64
15050;BME280;7622;42.724;23.250;2022-08-06T19:56:25;94449.78;;;27.51;75.36
15050;BME280;7622;42.724;23.250;2022-08-06T19:58:52;94446.47;;;27.66;72.16
15050;BME280;7622;42.724;23.250;2022-08-06T20:01:20;94449.53;;;27.53;73.44
15050;BME280;7622;42.724;23.250;2022-08-06T20:03:47;94448.13;;;27.45;74.67
15050;BME280;7622;42.724;23.250;2022-08-06T20:06:14;94453.91;;;27.37;77.66
15050;BME280;7622;42.724;23.250;2022-08-06T20:08:41;94449.00;;;27.24;77.54
15050;BME280;7622;42.724;23.250;2022-08-06T20:11:10;94441.91;;;27.13;77.80
15050;BME280;7622;42.724;23.250;2022-08-06T20:13:38;94451.09;;;27.49;73.92
15050;BME280;7622;42.724;23.250;2022-08-06T20:16:05;94434.78;;;27.45;74.50
15050;BME280;7622;42.724;23.250;2022-08-06T20:18:34;94442.72;;;27.40;76.51
15050;BME280;7622;42.724;23.250;2022-08-06T20:21:02;94442.13;;;27.33;74.78
15050;BME280;7622;42.724;23.250;2022-08-06T20:23:29;94442.03;;;27.23;76.62
15050;BME280;7622;42.724;23.250;2022-08-06T20:25:57;94436.38;;;27.19;76.94
15050;BME280;7622;42.724;23.250;2022-08-06T20:28:26;94443.59;;;27.19;81.22
15050;BME280;7622;42.724;23.250;2022-08-06T20:30:53;94442.25;;;27.16;81.53
15050;BME280;7622;42.724;23.250;2022-08-06T20:33:21;94445.75;;;27.22;84.50
15050;BME280;7622;42.724;23.250;2022-08-06T20:35:49;94443.38;;;27.25;84.64
15050;BME280;7622;42.724;23.250;2022-08-06T20:38:16;94443.06;;;27.17;84.43
15050;BME280;7622;42.724;23.250;2022-08-06T20:40:43;94451.66;;;27.24;83.62
15050;BME280;7622;42.724;23.250;2022-08-06T20:43:10;94444.94;;;26.94;86.44
15050;BME280;7622;42.724;23.250;2022-08-06T20:45:39;94446.53;;;26.52;89.40
15050;BME280;7622;42.724;23.250;2022-08-06T20:48:06;94450.75;;;26.48;89.12
15050;BME280;7622;42.724;23.250;2022-08-06T20:50:33;94446.66;;;26.23;90.66
15050;BME280;7622;42.724;23.250;2022-08-06T20:53:02;94448.44;;;26.18;91.26
15050;BME280;7622;42.724;23.250;2022-08-06T20:55:29;94451.69;;;26.03;92.39
15050;BME280;7622;42.724;23.250;2022-08-06T20:57:56;94464.34;;;26.13;91.57
15050;BME280;7622;42.724;23.250;2022-08-06T21:00:22;94449.66;;;26.10;92.45
15050;BME280;7622;42.724;23.250;2022-08-06T21:02:51;94453.22;;;25.99;93.44
15050;BME280;7622;42.724;23.250;2022-08-06T21:05:18;94452.09;;;25.95;93.19
15050;BME280;7622;42.724;23.250;2022-08-06T21:07:48;94457.50;;;25.67;94.77
15050;BME280;7622;42.724;23.250;2022-08-06T21:10:17;94451.91;;;25.52;95.41
15050;BME280;7622;42.724;23.250;2022-08-06T21:12:44;94458.47;;;25.61;93.96
15050;BME280;7622;42.724;23.250;2022-08-06T21:15:11;94458.53;;;25.66;93.85
15050;BME280;7622;42.724;23.250;2022-08-06T21:17:38;94454.84;;;25.67;93.66
15050;BME280;7622;42.724;23.250;2022-08-06T21:20:06;94437.03;;;25.39;93.01
15050;BME280;7622;42.724;23.250;2022-08-06T21:22:33;94457.09;;;25.58;92.39
15050;BME280;7622;42.724;23.250;2022-08-06T21:24:59;94463.91;;;25.54;92.71
15050;BME280;7622;42.724;23.250;2022-08-06T21:27:29;94457.13;;;25.46;93.47
15050;BME280;7622;42.724;23.250;2022-08-06T21:30:12;94452.69;;;25.35;94.03
15050;BME280;7622;42.724;23.250;2022-08-06T21:32:39;94464.59;;;25.33;94.82
15050;BME280;7622;42.724;23.250;2022-08-06T21:35:06;94461.31;;;25.42;93.20
15050;BME280;7622;42.724;23.250;2022-08-06T21:37:33;94470.16;;;25.60;91.63
15050;BME280;7622;42.724;23.250;2022-08-06T21:39:59;94465.75;;;25.54;93.41